createdAt,value
2023-05-04T11:08:45.518Z,83.23
2023-05-04T11:09:45.427Z,81.92
2023-05-04T11:10:45.410Z,81.19
2023-05-04T11:11:45.401Z,80.55
2023-05-04T11:12:45.447Z,79.52
2023-05-04T11:13:45.372Z,79.17
2023-05-04T11:14:45.334Z,78.27
2023-05-04T11:15:45.356Z,78.52
2023-05-04T11:16:45.362Z,78.00
2023-05-04T11:17:45.355Z,79.16
2023-05-04T11:18:45.319Z,79.00
2023-05-04T11:19:45.283Z,78.48
2023-05-04T11:20:53.109Z,79.06
2023-05-04T11:21:45.277Z,78.61
2023-05-04T11:22:45.238Z,79.87
2023-05-04T11:23:45.257Z,79.14
2023-05-04T11:24:45.215Z,78.61
2023-05-04T11:25:45.221Z,78.94
2023-05-04T11:26:45.199Z,79.27
2023-05-04T11:27:45.206Z,78.64
2023-05-04T11:28:45.201Z,76.91
2023-05-04T11:29:45.166Z,76.97
2023-05-04T11:30:45.147Z,77.50
2023-05-04T11:31:45.198Z,78.33
2023-05-04T11:32:45.177Z,77.65
2023-05-04T11:33:45.138Z,77.88
2023-05-04T11:34:45.120Z,76.72
2023-05-04T11:35:45.120Z,76.53
2023-05-04T11:36:45.081Z,76.76
2023-05-04T11:37:45.073Z,76.24
2023-05-04T11:38:45.071Z,77.44
2023-05-04T11:39:45.064Z,77.57
2023-05-04T11:40:45.035Z,75.73
2023-05-04T11:41:45.054Z,76.74
2023-05-04T11:42:45.053Z,75.90
2023-05-04T11:43:45.010Z,73.83
2023-05-04T11:44:44.991Z,74.96
2023-05-04T11:45:45.015Z,74.86
2023-05-04T11:46:44.988Z,75.28
2023-05-04T11:47:45.037Z,75.15
2023-05-04T11:48:44.995Z,73.75
2023-05-04T11:49:44.944Z,75.63
2023-05-04T11:50:44.953Z,76.29
2023-05-04T11:51:44.940Z,75.78
2023-05-04T11:52:44.921Z,73.84
2023-05-04T11:53:44.909Z,72.91
2023-05-04T11:54:44.903Z,72.13
2023-05-04T11:55:44.894Z,72.33
2023-05-04T11:56:44.859Z,72.16
2023-05-04T11:57:44.875Z,73.28
2023-05-04T11:58:44.857Z,72.64
2023-05-04T11:59:44.833Z,71.06
2023-05-04T12:00:44.829Z,72.05
2023-05-04T12:01:44.816Z,72.63
2023-05-04T12:02:44.854Z,73.60
2023-05-04T12:03:53.637Z,73.89
2023-05-04T12:04:44.774Z,72.73
2023-05-04T12:05:44.841Z,73.21
2023-05-04T12:06:44.759Z,72.50
2023-05-04T12:07:44.770Z,73.27
2023-05-04T12:08:44.744Z,74.51
2023-05-04T12:09:44.783Z,76.10
2023-05-04T12:10:44.728Z,73.46
2023-05-04T12:11:44.769Z,72.71
2023-05-04T12:12:44.745Z,72.38
2023-05-04T12:13:44.711Z,72.55
2023-05-04T12:14:44.687Z,71.96
2023-05-04T12:15:44.682Z,70.98
2023-05-04T12:16:44.738Z,71.76
2023-05-04T12:17:44.677Z,73.03
2023-05-04T12:18:44.627Z,72.39
2023-05-04T12:19:44.642Z,71.03
2023-05-04T12:20:44.624Z,71.32
2023-05-04T12:21:44.617Z,69.48
2023-05-04T12:22:44.609Z,69.06
2023-05-04T12:23:44.601Z,71.09
2023-05-04T12:24:44.584Z,71.42
2023-05-04T12:25:57.339Z,71.84
2023-05-04T12:26:44.579Z,69.84
2023-05-04T12:27:44.599Z,69.19
2023-05-04T12:28:44.545Z,67.54
2023-05-04T12:29:44.541Z,66.95
2023-05-04T12:30:44.523Z,67.66
2023-05-04T12:31:44.562Z,66.96
2023-05-04T12:32:44.551Z,66.63
2023-05-04T12:33:44.502Z,66.40
2023-05-04T12:34:44.513Z,65.43
2023-05-04T12:35:44.479Z,66.72
2023-05-04T12:36:44.547Z,66.14
2023-05-04T12:37:44.455Z,64.81
2023-05-04T12:38:44.434Z,64.40
2023-05-04T12:39:44.445Z,65.59
2023-05-04T12:40:44.445Z,66.27
2023-05-04T12:41:44.402Z,64.65
2023-05-04T12:42:44.387Z,65.47
2023-05-04T12:43:44.418Z,65.98
2023-05-04T12:44:44.387Z,66.30
2023-05-04T12:45:44.410Z,65.92
2023-05-04T12:46:44.373Z,66.27
2023-05-04T12:47:44.365Z,66.50
2023-05-04T12:48:44.364Z,66.34
2023-05-04T12:49:44.349Z,65.69
2023-05-04T12:50:44.314Z,65.82
2023-05-04T12:51:44.308Z,65.56
2023-05-04T12:52:44.318Z,63.78
2023-05-04T12:53:44.348Z,64.62
2023-05-04T12:54:44.274Z,64.04
2023-05-04T12:55:44.274Z,64.85
2023-05-04T12:56:44.257Z,63.13
2023-05-04T12:57:44.259Z,63.71
2023-05-04T12:58:44.241Z,63.78
2023-05-04T12:59:44.253Z,62.88
2023-05-04T13:00:46.023Z,63.65
2023-05-04T13:01:44.340Z,63.85
2023-05-04T13:02:44.258Z,63.59
2023-05-04T13:03:44.275Z,62.69
2023-05-04T13:04:44.221Z,63.40
2023-05-04T13:05:44.193Z,63.17
2023-05-04T13:06:45.689Z,63.78
2023-05-04T13:07:44.176Z,63.49
2023-05-04T13:08:44.161Z,63.32
2023-05-04T13:09:44.202Z,63.94
2023-05-04T13:10:44.152Z,61.38
2023-05-04T13:11:44.137Z,62.04
2023-05-04T13:12:46.097Z,60.77
2023-05-04T13:13:44.124Z,61.29
2023-05-04T13:14:44.119Z,61.48
2023-05-04T13:15:44.155Z,62.77
2023-05-04T13:16:44.112Z,62.97
2023-05-04T13:17:44.180Z,60.74
2023-05-04T13:18:44.078Z,59.95
2023-05-04T13:19:44.079Z,59.95
2023-05-04T13:20:44.091Z,60.35
2023-05-04T13:21:44.081Z,59.86
2023-05-04T13:22:44.050Z,62.32
2023-05-04T13:23:44.048Z,62.16
2023-05-04T13:24:44.073Z,61.31
2023-05-04T13:25:44.062Z,61.63
2023-05-04T13:26:44.031Z,59.95
2023-05-04T13:27:44.029Z,60.44
2023-05-04T13:28:44.030Z,59.66
2023-05-04T13:29:44.104Z,59.63
2023-05-04T13:30:44.031Z,59.92
2023-05-04T13:31:45.375Z,59.79
2023-05-04T13:32:44.032Z,60.57
2023-05-04T13:33:43.987Z,60.08
2023-05-04T13:34:43.966Z,60.60
2023-05-04T13:35:43.970Z,60.24
2023-05-04T13:36:43.977Z,58.65
2023-05-04T13:37:43.961Z,58.59
2023-05-04T13:38:43.964Z,58.14
2023-05-04T13:39:43.921Z,59.95
2023-05-04T13:40:43.930Z,59.92
2023-05-04T13:41:43.941Z,60.64
2023-05-04T13:42:43.940Z,61.64
2023-05-04T13:43:43.924Z,60.96
2023-05-04T13:44:43.924Z,59.95
2023-05-04T13:45:43.920Z,60.28
2023-05-04T13:46:43.956Z,61.44
2023-05-04T13:47:43.893Z,61.08
2023-05-04T13:48:43.942Z,60.15
2023-05-04T13:49:43.866Z,61.02
2023-05-04T13:50:43.864Z,61.51
2023-05-04T13:51:43.855Z,60.79
2023-05-04T13:52:43.905Z,59.17
2023-05-04T13:53:43.846Z,58.87
2023-05-04T13:54:43.873Z,59.23
2023-05-04T13:55:43.837Z,61.40
2023-05-04T13:56:43.857Z,61.04
2023-05-04T13:57:43.860Z,58.53
2023-05-04T13:58:43.855Z,58.31
2023-05-04T13:59:54.641Z,56.89
2023-05-04T14:00:43.878Z,57.40
2023-05-04T14:01:43.812Z,58.09
2023-05-04T14:02:43.883Z,58.35
2023-05-04T14:03:43.808Z,58.91
2023-05-04T14:04:44.446Z,58.22
2023-05-04T14:05:43.790Z,59.17
2023-05-04T14:06:43.822Z,59.17
2023-05-04T14:07:43.788Z,59.36
2023-05-04T14:08:43.824Z,59.75
2023-05-04T14:09:43.778Z,60.92
2023-05-04T14:10:43.779Z,61.60
2023-05-04T14:11:43.763Z,60.95
2023-05-04T14:12:43.807Z,57.93
2023-05-04T14:13:43.754Z,58.17
2023-05-04T14:14:43.794Z,58.97
2023-05-04T14:15:43.750Z,59.41
2023-05-04T14:16:43.788Z,59.67
2023-05-04T14:17:43.845Z,61.05
2023-05-04T14:18:43.760Z,60.53
2023-05-04T14:19:43.770Z,59.92
2023-05-04T14:20:43.764Z,60.60
2023-05-04T14:21:43.723Z,59.79
2023-05-04T14:22:43.751Z,60.34
2023-05-04T14:23:43.741Z,59.88
2023-05-04T14:24:43.743Z,60.08
2023-05-04T14:25:43.742Z,59.92
2023-05-04T14:26:43.718Z,60.70
2023-05-04T14:27:43.752Z,60.50
2023-05-04T14:28:43.710Z,60.67
2023-05-04T14:29:44.845Z,62.94
2023-05-04T14:30:43.710Z,63.13
2023-05-04T14:31:43.727Z,64.01
2023-05-04T14:32:43.747Z,62.68
2023-05-04T14:33:43.678Z,62.77
2023-05-04T14:34:43.704Z,63.36
2023-05-04T14:35:44.365Z,63.10
2023-05-04T14:36:43.687Z,63.65
2023-05-04T14:37:43.674Z,62.45
2023-05-04T14:38:43.681Z,62.09
2023-05-04T14:39:43.666Z,61.37
2023-05-04T14:40:43.679Z,61.27
2023-05-04T14:41:43.642Z,59.87
2023-05-04T14:42:43.657Z,58.94
2023-05-04T14:43:43.643Z,60.44
2023-05-04T14:44:43.637Z,61.21
2023-05-04T14:45:43.653Z,58.97
2023-05-04T14:46:43.650Z,58.61
2023-05-04T14:47:43.670Z,58.20
2023-05-04T14:48:43.632Z,57.37
2023-05-04T14:49:43.621Z,56.79
2023-05-04T14:50:43.629Z,58.35
2023-05-04T14:51:43.593Z,59.30
2023-05-04T14:52:43.616Z,59.10
2023-05-04T14:53:43.594Z,60.69
2023-05-04T14:54:43.585Z,60.63
2023-05-04T14:55:43.583Z,61.44
2023-05-04T14:56:43.596Z,62.66
2023-05-04T14:57:43.569Z,62.73
2023-05-04T14:58:43.625Z,61.27
2023-05-04T14:59:43.591Z,61.31
2023-05-04T15:00:43.642Z,62.84
2023-05-04T15:01:43.636Z,62.26
2023-05-04T15:02:43.671Z,63.68
2023-05-04T15:03:43.612Z,63.98
2023-05-04T15:04:43.551Z,64.20
2023-05-04T15:05:43.562Z,63.52
2023-05-04T15:06:43.558Z,63.36
2023-05-04T15:07:43.526Z,64.59
2023-05-04T15:08:43.536Z,64.72
2023-05-04T15:09:43.532Z,63.45
2023-05-04T15:10:43.521Z,62.70
2023-05-04T15:11:43.542Z,63.16
2023-05-04T15:12:43.554Z,62.48
2023-05-04T15:13:43.501Z,63.32
2023-05-04T15:14:43.525Z,63.75
2023-05-04T15:15:43.522Z,62.57
2023-05-04T15:16:43.507Z,62.87
2023-05-04T15:17:43.526Z,62.74
2023-05-04T15:18:43.495Z,64.07
2023-05-04T15:19:43.510Z,65.53
2023-05-04T15:20:43.498Z,65.08
2023-05-04T15:21:43.504Z,65.30
2023-05-04T15:22:43.487Z,65.95
2023-05-04T15:23:43.493Z,66.63
2023-05-04T15:24:43.481Z,67.11
2023-05-04T15:25:43.470Z,67.47
2023-05-04T15:26:43.480Z,67.44
2023-05-04T15:27:43.448Z,67.99
2023-05-04T15:28:43.450Z,67.50
2023-05-04T15:29:43.436Z,68.28
2023-05-04T15:30:43.452Z,68.76
2023-05-04T15:31:43.496Z,68.47
2023-05-04T15:32:43.460Z,68.08
2023-05-04T15:33:43.461Z,68.05
2023-05-04T15:34:50.687Z,66.63
2023-05-04T15:35:43.427Z,67.11
2023-05-04T15:36:43.413Z,67.18
2023-05-04T15:37:43.430Z,67.93
2023-05-04T15:38:43.402Z,67.67
2023-05-04T15:39:43.380Z,66.73
2023-05-04T15:40:43.388Z,65.82
2023-05-04T15:41:43.384Z,64.49
2023-05-04T15:42:43.398Z,64.88
2023-05-04T15:43:43.358Z,65.27
2023-05-04T15:44:43.396Z,64.62
2023-05-04T15:45:43.375Z,63.87
2023-05-04T15:46:43.412Z,63.55
2023-05-04T15:47:43.389Z,64.62
2023-05-04T15:48:43.352Z,64.23
2023-05-04T15:49:43.356Z,64.46
2023-05-04T15:50:43.333Z,65.33
2023-05-04T15:51:43.365Z,66.89
2023-05-04T15:52:43.350Z,65.53
2023-05-04T15:53:43.335Z,65.63
2023-05-04T15:54:43.340Z,65.59
2023-05-04T15:55:43.317Z,66.47
2023-05-04T15:56:43.533Z,65.95
2023-05-04T15:57:43.322Z,66.14
2023-05-04T15:58:43.304Z,66.24
2023-05-04T15:59:43.288Z,65.08
2023-05-04T16:00:43.313Z,65.46
2023-05-04T16:01:43.355Z,65.33
2023-05-04T16:02:43.365Z,64.29
2023-05-04T16:03:43.374Z,64.07
2023-05-04T16:04:43.305Z,64.26
2023-05-04T16:05:43.295Z,64.36
2023-05-04T16:06:43.276Z,64.36
2023-05-04T16:07:43.282Z,63.94
2023-05-04T16:08:43.277Z,63.45
2023-05-04T16:09:43.274Z,63.68
2023-05-04T16:10:43.258Z,63.78
2023-05-04T16:11:43.253Z,63.16
2023-05-04T16:12:43.303Z,63.42
2023-05-04T16:13:43.267Z,64.62
2023-05-04T16:14:43.252Z,63.51
2023-05-04T16:15:43.244Z,63.74
2023-05-04T16:16:43.292Z,63.15
2023-05-04T16:17:43.270Z,63.48
2023-05-04T16:18:43.242Z,63.45
2023-05-04T16:19:43.253Z,63.71
2023-05-04T16:20:43.259Z,63.64
2023-05-04T16:21:43.227Z,63.54
2023-05-04T16:22:43.267Z,64.00
2023-05-04T16:23:43.236Z,63.55
2023-05-04T16:24:43.245Z,64.10
2023-05-04T16:25:43.235Z,65.14
2023-05-04T16:26:43.225Z,65.37
2023-05-04T16:27:43.379Z,65.89
2023-05-04T16:28:43.216Z,66.08
2023-05-04T16:29:43.226Z,66.17
2023-05-04T16:30:43.230Z,66.99
2023-05-04T16:31:43.230Z,67.34
2023-05-04T16:32:43.252Z,67.24
2023-05-04T16:34:46.328Z,67.31
2023-05-04T16:35:46.330Z,67.96
2023-05-04T16:43:37.357Z,69.37
2023-05-04T16:44:37.350Z,70.28
2023-05-04T16:45:37.314Z,69.41
2023-05-04T16:46:37.462Z,68.47
2023-05-04T16:47:37.372Z,69.15
2023-05-04T16:48:37.347Z,68.96
2023-05-04T16:49:37.317Z,69.41
2023-05-04T16:50:37.304Z,69.31
2023-05-04T16:51:37.286Z,69.21
2023-05-04T16:52:37.290Z,69.37
2023-05-04T16:53:37.310Z,69.37
2023-05-04T16:54:37.306Z,69.47
2023-05-04T16:55:37.276Z,70.37
2023-05-04T16:56:37.299Z,69.41
2023-05-04T16:57:37.268Z,69.83
2023-05-04T16:58:37.304Z,69.70
2023-05-04T16:59:37.271Z,69.70
2023-05-04T17:00:37.268Z,70.76
2023-05-04T17:01:37.306Z,70.05
2023-05-04T17:02:37.297Z,70.44
2023-05-04T17:03:37.339Z,69.15
2023-05-04T17:04:37.232Z,67.82
2023-05-04T17:05:37.222Z,69.37
2023-05-04T17:06:37.218Z,69.02
2023-05-04T17:07:37.223Z,69.12
2023-05-04T17:08:37.221Z,68.73
2023-05-04T17:09:37.209Z,67.95
2023-05-04T17:10:37.215Z,68.82
2023-05-04T17:11:37.187Z,69.27
2023-05-04T17:13:21.151Z,68.54
2023-05-04T17:14:21.065Z,68.70
2023-05-04T17:15:21.060Z,68.70
2023-05-04T17:16:21.044Z,67.92
2023-05-04T17:17:21.036Z,68.56
2023-05-04T17:18:21.026Z,67.69
